Time;durP1;ratioP1;P1;durP2;ratioP2;P2;SDS_P1;SDS_P2;PMS_P1;PMS_P2;Temp;Humidity;BMP_temperature;BMP_pressure;BME280_temperature;BME280_humidity;BME280_pressure;Samples;Min_cycle;Max_cycle;Signal;HPM_P1;HPM_P2
2021/04/16 00:00:36;;;;;;;;;;;4.10;99.90;;;;;;5095914;28;19911;-76
2021/04/16 00:03:03;;;;;;;;;;;4.10;99.90;;;;;;5114949;28;19953;-77
2021/04/16 00:05:28;;;;;;;;;;;4.10;99.90;;;;;;5113199;28;19999;-77
2021/04/16 00:07:54;;;;;;;;;;;4.10;99.90;;;;;;5095995;28;20006;-76
2021/04/16 00:10:34;;;;;;;;;;;4.10;99.90;;;;;;5096691;28;19910;-77
2021/04/16 00:13:00;;;;;;;;;;;4.10;99.90;;;;;;5104622;28;19998;-76
2021/04/16 00:15:26;;;;;;;;;;;4.10;99.90;;;;;;5125786;28;19910;-76
2021/04/16 00:17:51;;;;;;;;;;;4.10;99.90;;;;;;5125987;28;19940;-77
2021/04/16 00:20:19;;;;;;;;;;;4.20;99.90;;;;;;5100831;28;19995;-78
2021/04/16 00:22:44;;;;;;;;;;;4.30;99.90;;;;;;5099643;28;19904;-78
2021/04/16 00:25:12;;;;;;;;;;;4.20;99.90;;;;;;5099703;28;19925;-78
2021/04/16 00:27:38;;;;;;;;;;;4.30;99.90;;;;;;5101094;28;19903;-78
2021/04/16 00:30:04;;;;;;;;;;;4.30;99.90;;;;;;5118806;28;19903;-78
2021/04/16 00:32:30;;;;;;;;;;;4.40;99.90;;;;;;5100956;28;19988;-78
2021/04/16 00:34:55;;;;;;;;;;;4.40;99.90;;;;;;5119364;28;19955;-78
2021/04/16 00:37:24;;;;;;;;;;;4.40;99.90;;;;;;5101626;28;19911;-80
2021/04/16 00:39:49;;;;;;;;;;;4.50;99.90;;;;;;5114488;28;19947;-77
2021/04/16 00:42:15;;;;;;;;;;;4.50;99.90;;;;;;5114431;28;20282;-78
2021/04/16 00:44:40;;;;;;;;;;;4.60;99.90;;;;;;5095651;28;19910;-78
2021/04/16 00:47:07;;;;;;;;;;;4.50;99.90;;;;;;5114422;28;19903;-78
2021/04/16 00:49:37;;;;;;;;;;;4.60;99.90;;;;;;5096106;28;19907;-77
2021/04/16 00:52:04;;;;;;;;;;;4.60;99.90;;;;;;5096267;28;19973;-79
2021/04/16 00:54:36;;;;;;;;;;;4.60;99.90;;;;;;5113941;28;19904;-78
2021/04/16 00:57:03;;;;;;;;;;;4.60;99.90;;;;;;5095774;28;19918;-78
2021/04/16 00:59:30;;;;;;;;;;;4.50;99.90;;;;;;5095510;28;19904;-78
2021/04/16 01:02:00;;;;;;;;;;;4.50;99.90;;;;;;5096242;28;19904;-78
2021/04/16 01:04:26;;;;;;;;;;;4.40;99.90;;;;;;5113493;28;19904;-78
2021/04/16 01:06:52;;;;;;;;;;;4.40;99.90;;;;;;5113207;28;19907;-78
2021/04/16 01:09:18;;;;;;;;;;;4.50;99.90;;;;;;5113284;28;19927;-78
2021/04/16 01:11:43;;;;;;;;;;;4.50;99.90;;;;;;5113573;28;19907;-78
2021/04/16 01:14:09;;;;;;;;;;;4.30;99.90;;;;;;5094686;28;20305;-76
2021/04/16 01:16:35;;;;;;;;;;;4.30;99.90;;;;;;5112909;28;20382;-76
2021/04/16 01:19:02;;;;;;;;;;;4.30;99.90;;;;;;5094939;28;19911;-76
2021/04/16 01:21:32;;;;;;;;;;;4.30;99.90;;;;;;5094804;28;19911;-76
2021/04/16 01:24:03;;;;;;;;;;;4.20;99.90;;;;;;5093872;28;19904;-76
2021/04/16 01:26:36;;;;;;;;;;;4.30;99.90;;;;;;5094539;28;19904;-75
2021/04/16 01:29:01;;;;;;;;;;;4.30;99.90;;;;;;5094393;28;19964;-76
2021/04/16 01:31:28;;;;;;;;;;;4.20;99.90;;;;;;5094513;28;20002;-75
2021/04/16 01:33:54;;;;;;;;;;;4.10;99.90;;;;;;5093813;28;19999;-76
2021/04/16 01:36:30;;;;;;;;;;;4.10;99.90;;;;;;5112617;28;20408;-76
2021/04/16 01:38:56;;;;;;;;;;;4.20;99.90;;;;;;5112948;28;19957;-79
2021/04/16 01:41:23;;;;;;;;;;;4.10;99.90;;;;;;5113134;28;19914;-77
2021/04/16 01:43:53;;;;;;;;;;;4.10;99.90;;;;;;5095132;28;19903;-78
2021/04/16 01:46:19;;;;;;;;;;;4.20;99.90;;;;;;5095396;28;20305;-78
2021/04/16 01:48:45;;;;;;;;;;;4.20;99.90;;;;;;5095179;28;19904;-78
2021/04/16 01:51:15;;;;;;;;;;;4.20;99.90;;;;;;5113677;28;19904;-78
2021/04/16 01:53:41;;;;;;;;;;;4.10;99.90;;;;;;5113325;28;20298;-78
2021/04/16 01:56:07;;;;;;;;;;;4.10;99.90;;;;;;5094922;28;19903;-77
2021/04/16 01:58:32;;;;;;;;;;;4.00;99.90;;;;;;5095270;28;19919;-79
2021/04/16 02:00:58;;;;;;;;;;;4.00;99.90;;;;;;5113436;28;20401;-78
2021/04/16 02:03:23;;;;;;;;;;;3.80;99.90;;;;;;5113778;28;19904;-78
2021/04/16 02:05:49;;;;;;;;;;;3.80;99.90;;;;;;5112880;28;19903;-79
2021/04/16 02:08:14;;;;;;;;;;;3.70;99.90;;;;;;5094527;28;20351;-77
2021/04/16 02:10:42;;;;;;;;;;;3.70;99.90;;;;;;5112269;28;19903;-76
2021/04/16 02:13:07;;;;;;;;;;;3.60;99.90;;;;;;5112312;28;20370;-77
2021/04/16 02:15:33;;;;;;;;;;;3.60;99.90;;;;;;5093562;28;19903;-76
2021/04/16 02:17:58;;;;;;;;;;;3.60;99.90;;;;;;5094084;28;19914;-78
2021/04/16 02:20:24;;;;;;;;;;;3.60;99.90;;;;;;5115788;28;19986;-77
2021/04/16 02:22:50;;;;;;;;;;;3.50;99.90;;;;;;5115964;28;20351;-76
2021/04/16 02:25:16;;;;;;;;;;;3.50;99.90;;;;;;5097131;28;19903;-77
2021/04/16 02:27:41;;;;;;;;;;;3.60;99.90;;;;;;5097723;28;20363;-77
2021/04/16 02:30:11;;;;;;;;;;;3.50;99.90;;;;;;5115593;28;19910;-77
2021/04/16 02:32:37;;;;;;;;;;;3.50;99.90;;;;;;5115757;28;19903;-76
2021/04/16 02:35:03;;;;;;;;;;;3.40;99.90;;;;;;5097160;28;20060;-76
2021/04/16 02:37:29;;;;;;;;;;;3.40;99.90;;;;;;5097623;28;19908;-76
2021/04/16 02:39:54;;;;;;;;;;;3.60;99.90;;;;;;5115716;28;19911;-77
2021/04/16 02:42:20;;;;;;;;;;;3.70;99.90;;;;;;5115884;28;19910;-76
2021/04/16 02:44:46;;;;;;;;;;;3.70;99.90;;;;;;5096891;28;19904;-77
2021/04/16 02:47:12;;;;;;;;;;;3.70;99.90;;;;;;5097562;28;19916;-76
2021/04/16 02:49:37;;;;;;;;;;;3.80;99.90;;;;;;5097159;28;19908;-76
2021/04/16 02:52:04;;;;;;;;;;;3.80;99.90;;;;;;5116301;28;19908;-78
2021/04/16 02:54:29;;;;;;;;;;;3.80;99.90;;;;;;5114982;28;20002;-76
2021/04/16 02:56:55;;;;;;;;;;;3.80;99.90;;;;;;5116029;28;20006;-76
2021/04/16 02:59:21;;;;;;;;;;;3.70;99.90;;;;;;5115480;28;20008;-79
2021/04/16 03:01:47;;;;;;;;;;;3.70;99.90;;;;;;5115465;28;20469;-76
2021/04/16 03:04:13;;;;;;;;;;;3.80;99.90;;;;;;5096739;28;20006;-77
2021/04/16 03:06:38;;;;;;;;;;;3.90;99.90;;;;;;5096989;28;19910;-77
2021/04/16 03:09:05;;;;;;;;;;;3.90;99.90;;;;;;5097273;28;19908;-79
2021/04/16 03:11:31;;;;;;;;;;;4.00;99.90;;;;;;5115307;28;19911;-76
2021/04/16 03:13:56;;;;;;;;;;;3.90;99.90;;;;;;5114822;28;19904;-77
2021/04/16 03:16:24;;;;;;;;;;;4.00;99.90;;;;;;5097455;28;19904;-76
2021/04/16 03:18:50;;;;;;;;;;;4.00;99.90;;;;;;5122997;28;19910;-77
2021/04/16 03:21:15;;;;;;;;;;;4.00;99.90;;;;;;5126156;28;19903;-77
2021/04/16 03:23:41;;;;;;;;;;;4.00;99.90;;;;;;5130556;28;19938;-78
2021/04/16 03:26:06;;;;;;;;;;;4.00;99.90;;;;;;5123784;28;19946;-77
2021/04/16 03:28:32;;;;;;;;;;;3.80;99.90;;;;;;5115167;28;19911;-77
2021/04/16 03:30:57;;;;;;;;;;;3.80;99.90;;;;;;5113326;28;19908;-77
2021/04/16 03:33:23;;;;;;;;;;;3.80;99.90;;;;;;5114647;28;19915;-77
2021/04/16 03:35:48;;;;;;;;;;;3.90;99.90;;;;;;5095925;28;19903;-76
2021/04/16 03:38:14;;;;;;;;;;;3.90;99.90;;;;;;5096288;28;20014;-77
2021/04/16 03:40:39;;;;;;;;;;;3.80;99.90;;;;;;5114410;28;19929;-76
2021/04/16 03:43:05;;;;;;;;;;;3.80;99.90;;;;;;5096291;28;19903;-77
2021/04/16 03:45:31;;;;;;;;;;;3.80;99.90;;;;;;5095639;28;19904;-76
2021/04/16 03:47:56;;;;;;;;;;;3.80;99.90;;;;;;5114597;28;19910;-79
2021/04/16 03:50:24;;;;;;;;;;;3.80;99.90;;;;;;5114376;28;19998;-76
2021/04/16 03:52:49;;;;;;;;;;;3.80;99.90;;;;;;5114467;28;19904;-77
2021/04/16 03:55:16;;;;;;;;;;;3.70;99.90;;;;;;5095456;28;19910;-77
2021/04/16 03:57:41;;;;;;;;;;;3.60;99.90;;;;;;5096024;28;20297;-77
2021/04/16 04:00:08;;;;;;;;;;;3.50;99.90;;;;;;5095974;28;19911;-79
2021/04/16 04:02:34;;;;;;;;;;;3.50;99.90;;;;;;5095891;28;19911;-77
2021/04/16 04:04:59;;;;;;;;;;;3.60;99.90;;;;;;5113593;28;19904;-76
2021/04/16 04:07:25;;;;;;;;;;;3.50;99.90;;;;;;5113985;28;19908;-77
2021/04/16 04:09:50;;;;;;;;;;;3.40;99.90;;;;;;5113657;28;19904;-77
2021/04/16 04:12:16;;;;;;;;;;;3.40;99.90;;;;;;5114096;28;20347;-77
2021/04/16 04:14:41;;;;;;;;;;;3.40;99.90;;;;;;5095094;28;19907;-77
2021/04/16 04:17:07;;;;;;;;;;;3.40;99.90;;;;;;5113634;28;19922;-76
2021/04/16 04:19:33;;;;;;;;;;;3.40;99.90;;;;;;5113614;28;19903;-77
2021/04/16 04:22:00;;;;;;;;;;;3.50;99.90;;;;;;5113538;28;20362;-77
2021/04/16 04:24:26;;;;;;;;;;;3.50;99.90;;;;;;5113171;28;19908;-77
2021/04/16 04:26:52;;;;;;;;;;;3.50;99.90;;;;;;5113742;28;19947;-76
2021/04/16 04:29:19;;;;;;;;;;;3.50;99.90;;;;;;5113622;28;20007;-76
2021/04/16 04:31:47;;;;;;;;;;;3.60;99.90;;;;;;5113411;28;20006;-77
2021/04/16 04:34:20;;;;;;;;;;;3.50;99.90;;;;;;5112944;28;20003;-77
2021/04/16 04:36:46;;;;;;;;;;;3.50;99.90;;;;;;5113265;28;20006;-76
2021/04/16 04:39:12;;;;;;;;;;;3.50;99.90;;;;;;5113579;28;19950;-75
2021/04/16 04:41:41;;;;;;;;;;;3.50;99.90;;;;;;5113171;28;19904;-77
2021/04/16 04:44:07;;;;;;;;;;;3.60;99.90;;;;;;5112808;28;19903;-77
2021/04/16 04:46:38;;;;;;;;;;;3.70;99.90;;;;;;5112471;28;20320;-77
2021/04/16 04:49:05;;;;;;;;;;;3.70;99.90;;;;;;5093274;28;19911;-78
2021/04/16 04:51:30;;;;;;;;;;;3.80;99.90;;;;;;5110828;28;19911;-76
2021/04/16 04:53:56;;;;;;;;;;;3.90;99.90;;;;;;5111543;28;20404;-78
2021/04/16 04:56:21;;;;;;;;;;;3.90;99.90;;;;;;5112066;28;19914;-77
2021/04/16 04:58:47;;;;;;;;;;;4.10;99.90;;;;;;5112178;28;19958;-80
2021/04/16 05:01:13;;;;;;;;;;;4.20;99.90;;;;;;5112545;28;20369;-78
2021/04/16 05:03:38;;;;;;;;;;;4.30;99.90;;;;;;5112775;28;19992;-78
2021/04/16 05:06:04;;;;;;;;;;;4.30;99.90;;;;;;5111331;28;19961;-77
2021/04/16 05:08:29;;;;;;;;;;;4.40;99.90;;;;;;5111827;28;20354;-76
2021/04/16 05:10:55;;;;;;;;;;;4.40;99.90;;;;;;5111566;28;19910;-77
2021/04/16 05:13:20;;;;;;;;;;;4.50;99.90;;;;;;5111826;28;19911;-77
2021/04/16 05:15:46;;;;;;;;;;;4.50;99.90;;;;;;5092990;28;19911;-78
2021/04/16 05:18:11;;;;;;;;;;;4.50;99.90;;;;;;5093427;28;19911;-77
2021/04/16 05:20:37;;;;;;;;;;;4.50;99.90;;;;;;5093792;28;20311;-78
2021/04/16 05:23:02;;;;;;;;;;;4.60;99.90;;;;;;5112794;28;19903;-76
2021/04/16 05:25:28;;;;;;;;;;;4.70;99.90;;;;;;5111008;28;19903;-78
2021/04/16 05:27:54;;;;;;;;;;;4.70;99.90;;;;;;5093384;28;19949;-77
2021/04/16 05:30:20;;;;;;;;;;;4.90;99.90;;;;;;5093469;28;19904;-77
2021/04/16 05:32:45;;;;;;;;;;;5.00;99.90;;;;;;5093404;28;19908;-76
2021/04/16 05:35:11;;;;;;;;;;;5.10;99.90;;;;;;5093149;28;20419;-76
2021/04/16 05:37:38;;;;;;;;;;;5.00;99.90;;;;;;5093402;28;19907;-76
2021/04/16 05:40:04;;;;;;;;;;;5.00;99.90;;;;;;5093413;28;19929;-76
2021/04/16 05:42:29;;;;;;;;;;;5.00;99.90;;;;;;5112044;28;19908;-78
2021/04/16 05:44:55;;;;;;;;;;;5.00;99.90;;;;;;5111453;28;19904;-75
2021/04/16 05:47:21;;;;;;;;;;;5.00;99.90;;;;;;5111317;28;20335;-76
2021/04/16 05:49:46;;;;;;;;;;;4.90;99.90;;;;;;5112079;28;19990;-78
2021/04/16 05:52:12;;;;;;;;;;;5.00;99.90;;;;;;5112231;28;20283;-77
2021/04/16 05:54:37;;;;;;;;;;;5.00;99.90;;;;;;5114010;28;19937;-76
2021/04/16 05:57:03;;;;;;;;;;;5.30;99.90;;;;;;5115913;28;19908;-77
2021/04/16 05:59:29;;;;;;;;;;;5.30;99.90;;;;;;5097144;28;20450;-77
2021/04/16 06:01:54;;;;;;;;;;;5.40;99.90;;;;;;5115705;28;20340;-76
2021/04/16 06:04:20;;;;;;;;;;;5.50;99.90;;;;;;5114942;28;19904;-76
2021/04/16 06:06:46;;;;;;;;;;;5.50;99.90;;;;;;5097869;28;19982;-78
2021/04/16 06:09:12;;;;;;;;;;;5.40;99.90;;;;;;5116468;28;19939;-78
2021/04/16 06:11:38;;;;;;;;;;;5.30;99.90;;;;;;5107857;28;19916;-77
2021/04/16 06:14:03;;;;;;;;;;;5.30;99.90;;;;;;5090850;28;19908;-79
2021/04/16 06:16:29;;;;;;;;;;;5.40;99.90;;;;;;5098273;28;19925;-79
2021/04/16 06:18:54;;;;;;;;;;;5.50;99.90;;;;;;5115578;28;19904;-77
2021/04/16 06:21:20;;;;;;;;;;;5.30;99.90;;;;;;5115699;28;20312;-77
2021/04/16 06:23:45;;;;;;;;;;;5.30;99.90;;;;;;5114775;28;20334;-77
2021/04/16 06:26:11;;;;;;;;;;;5.40;99.90;;;;;;5118952;28;19908;-76
2021/04/16 06:28:36;;;;;;;;;;;5.50;99.90;;;;;;5102601;28;19955;-77
2021/04/16 06:31:02;;;;;;;6.60;3.60;;;5.30;99.90;;;;;;5106212;28;19916;-76
2021/04/16 06:33:33;;;;;;;5.45;3.83;;;5.50;99.90;;;;;;5077525;28;20038;-76
2021/04/16 06:36:02;;;;;;;4.32;2.97;;;5.50;99.90;;;;;;5075041;28;20110;-75
2021/04/16 06:38:37;;;;;;;5.07;3.55;;;5.40;99.90;;;;;;5093803;28;20090;-76
2021/04/16 06:41:10;;;;;;;5.57;3.13;;;5.30;99.90;;;;;;5093520;28;20067;-76
2021/04/16 06:43:42;;;;;;;3.63;2.78;;;5.40;99.90;;;;;;5074889;28;20027;-75
2021/04/16 06:46:14;;;;;;;5.03;2.83;;;5.60;99.90;;;;;;5093056;28;20103;-76
2021/04/16 06:48:39;;;;;;;;;;;5.70;99.90;;;;;;5093730;28;20077;-77
2021/04/16 06:51:05;;;;;;;;;;;6.00;99.90;;;;;;5075452;28;19904;-76
2021/04/16 06:53:39;;;;;;;;;;;6.30;99.90;;;;;;5094630;28;19999;-76
2021/04/16 06:56:17;;;;;;;;;;;6.10;99.90;;;;;;5074894;28;19908;-76
2021/04/16 06:58:43;;;;;;;;;;;6.40;99.90;;;;;;5093092;28;19916;-76
2021/04/16 07:01:44;;;;;;;;;;;6.60;99.90;;;;;;5074972;28;19908;-76
2021/04/16 07:04:27;;;;;;;;;;;6.80;99.90;;;;;;5010826;28;19913;-76
2021/04/16 07:06:53;;;;;;;;;;;6.70;99.90;;;;;;5086267;28;19908;-76
2021/04/16 07:09:23;;;;;;;;;;;6.20;99.90;;;;;;5093631;28;19961;-76
2021/04/16 07:11:56;;;;;;;2.97;2.33;;;6.20;99.90;;;;;;5074832;28;19908;-77
2021/04/16 07:14:50;;;;;;;3.17;2.22;;;6.00;99.90;;;;;;5091997;28;20548;-76
2021/04/16 07:17:23;;;;;;;3.40;2.95;;;6.20;99.90;;;;;;5095440;28;20031;-76
2021/04/16 07:19:50;;;;;;;4.60;3.13;;;6.30;99.90;;;;;;5100437;28;20498;-76
2021/04/16 07:22:24;;;;;;;;;;;6.60;99.90;;;;;;5086634;28;20084;-76
2021/04/16 07:24:52;;;;;;;3.35;2.25;;;6.90;99.90;;;;;;5109176;28;19919;-76
2021/04/16 07:27:20;;;;;;;3.67;2.42;;;6.90;99.90;;;;;;5109869;28;20376;-76
2021/04/16 07:29:50;;;;;;;;;;;7.00;99.90;;;;;;5112946;28;19904;-76
2021/04/16 07:32:39;;;;;;;;;;;7.20;99.90;;;;;;5095251;28;19904;-76
2021/04/16 07:35:25;;;;;;;2.72;2.00;;;7.50;99.90;;;;;;5112312;28;19911;-77
2021/04/16 07:38:05;;;;;;;3.53;2.67;;;7.70;99.90;;;;;;5094557;28;20055;-76
2021/04/16 07:40:37;;;;;;;3.70;3.00;;;7.80;99.90;;;;;;5094501;28;20019;-76
2021/04/16 07:43:04;;;;;;;2.30;2.00;;;8.30;99.90;;;;;;5094893;28;20116;-76
2021/04/16 07:45:49;;;;;;;;;;;8.80;99.90;;;;;;5094003;28;20109;-76
2021/04/16 07:48:30;;;;;;;;;;;9.60;99.90;;;;;;5093969;28;19908;-76
2021/04/16 07:50:58;;;;;;;3.78;2.40;;;9.60;99.90;;;;;;5093853;28;20375;-76
2021/04/16 07:53:36;;;;;;;4.60;2.20;;;11.20;99.90;;;;;;5093440;28;20035;-76
2021/04/16 07:56:21;;;;;;;;;;;11.40;97.00;;;;;;5093967;28;20026;-75
2021/04/16 07:58:49;;;;;;;2.33;1.85;;;11.10;99.80;;;;;;5094470;28;19911;-77
2021/04/16 08:01:26;;;;;;;2.78;1.70;;;13.60;95.00;;;;;;5094401;28;20092;-77
2021/04/16 08:04:09;;;;;;;3.70;2.00;;;15.70;79.50;;;;;;5093603;28;20031;-77
2021/04/16 08:06:46;;;;;;;3.30;1.70;;;17.10;71.30;;;;;;5095396;28;19904;-78
2021/04/16 08:09:35;;;;;;;1.70;1.60;;;19.60;60.50;;;;;;5114847;28;20399;-78
2021/04/16 08:12:00;;;;;;;2.97;1.52;;;19.60;54.80;;;;;;5095862;28;20062;-76
2021/04/16 08:14:31;;;;;;;1.95;1.73;;;19.50;52.30;;;;;;5113545;28;20053;-77
2021/04/16 08:17:14;;;;;;;4.20;1.97;;;17.30;57.10;;;;;;5112940;28;20016;-78
2021/04/16 08:19:40;;;;;;;1.95;1.63;;;15.70;60.30;;;;;;5107049;28;20479;-76
2021/04/16 08:22:33;;;;;;;2.60;1.75;;;17.30;57.60;;;;;;5093444;28;20058;-78
2021/04/16 08:25:02;;;;;;;1.33;1.20;;;19.20;53.00;;;;;;5073907;28;20051;-77
2021/04/16 08:27:41;;;;;;;1.48;1.15;;;16.50;56.30;;;;;;5093960;28;20049;-78
2021/04/16 08:30:16;;;;;;;1.60;1.50;;;17.10;57.00;;;;;;5075904;28;20024;-80
2021/04/16 08:32:51;;;;;;;1.90;1.80;;;16.90;57.10;;;;;;5092428;28;20032;-79
2021/04/16 08:35:29;;;;;;;3.30;2.25;;;16.70;57.10;;;;;;5091716;28;20078;-77
2021/04/16 08:38:03;;;;;;;3.60;2.30;;;17.10;56.80;;;;;;5092370;28;20028;-78
2021/04/16 08:40:40;;;;;;;3.75;1.90;;;18.60;54.20;;;;;;5093306;28;20393;-79
2021/04/16 08:43:10;;;;;;;4.03;2.30;;;19.70;51.70;;;;;;5075801;28;20046;-78
2021/04/16 08:45:39;;;;;;;1.88;1.33;;;19.50;52.40;;;;;;5093586;28;20048;-79
2021/04/16 08:48:15;;;;;;;1.50;1.40;;;21.40;50.10;;;;;;5094551;28;20081;-78
2021/04/16 08:50:45;;;;;;;1.70;1.50;;;21.30;46.70;;;;;;5075848;28;20039;-78
2021/04/16 08:53:11;;;;;;;2.05;1.35;;;21.40;49.20;;;;;;5075624;28;20028;-79
2021/04/16 08:55:38;;;;;;;;;;;20.00;47.20;;;;;;5093018;28;20395;-78
2021/04/16 08:58:10;;;;;;;2.15;1.73;;;17.10;51.50;;;;;;5091306;28;19912;-78
2021/04/16 09:00:46;;;;;;;1.95;1.70;;;14.30;57.80;;;;;;5113700;28;20394;-80
2021/04/16 09:03:14;;;;;;;;;;;12.70;60.70;;;;;;5112438;28;20558;-76
2021/04/16 09:05:54;;;;;;;;;;;11.40;67.30;;;;;;5112131;28;19904;-76
2021/04/16 09:08:27;;;;;;;;;;;10.90;70.40;;;;;;5094129;28;19911;-76
2021/04/16 09:10:55;;;;;;;;;;;10.10;76.00;;;;;;5094403;28;20333;-76
2021/04/16 09:13:33;;;;;;;;;;;9.70;80.10;;;;;;5094490;28;19991;-76
2021/04/16 09:16:21;;;;;;;;;;;9.40;90.80;;;;;;5093864;28;19904;-76
2021/04/16 09:18:46;;;;;;;;;;;8.80;91.80;;;;;;5094349;28;19907;-78
2021/04/16 09:21:29;;;;;;;;;;;8.60;95.40;;;;;;5095401;28;19914;-78
2021/04/16 09:23:56;;;;;;;;;;;8.60;97.80;;;;;;5094708;28;20274;-77
2021/04/16 09:26:51;;;;;;;;;;;8.50;97.10;;;;;;5078111;28;19904;-77
2021/04/16 09:29:37;;;;;;;;;;;8.50;98.70;;;;;;5080777;28;19994;-76
2021/04/16 09:32:04;;;;;;;;;;;8.10;99.90;;;;;;5117708;28;19915;-77
2021/04/16 09:34:42;;;;;;;;;;;8.00;99.90;;;;;;5117347;28;19912;-78
2021/04/16 09:37:15;;;;;;;;;;;8.00;99.90;;;;;;5117211;28;20341;-76
2021/04/16 09:39:56;;;;;;;;;;;8.20;99.90;;;;;;5116218;28;19904;-76
2021/04/16 09:42:42;;;;;;;;;;;8.40;99.90;;;;;;5098454;28;19908;-76
2021/04/16 09:45:10;;;;;;;;;;;8.30;99.90;;;;;;5098117;28;19928;-78
2021/04/16 09:47:40;;;;;;;;;;;8.20;99.90;;;;;;5117321;28;20365;-76
2021/04/16 09:50:17;;;;;;;;;;;8.10;99.90;;;;;;5098499;28;19903;-76
2021/04/16 09:52:44;;;;;;;;;;;8.30;99.90;;;;;;5116655;28;20006;-76
2021/04/16 09:55:28;;;;;;;;;;;8.50;99.90;;;;;;5116095;28;19903;-76
2021/04/16 09:57:54;;;;;;;;;;;8.60;99.90;;;;;;5097948;28;19933;-76
2021/04/16 10:00:57;;;;;;;;;;;8.70;99.90;;;;;;5115888;28;19904;-76
2021/04/16 10:03:26;;;;;;;;;;;8.80;99.90;;;;;;5097939;28;19907;-76
2021/04/16 10:05:52;;;;;;;;;;;8.60;99.90;;;;;;5097148;28;20374;-76
2021/04/16 10:08:20;;;;;;;;;;;8.60;99.90;;;;;;5098434;28;19914;-75
2021/04/16 10:10:46;;;;;;;;;;;8.80;99.90;;;;;;5115881;28;20267;-75
2021/04/16 10:13:11;;;;;;;;;;;9.00;99.90;;;;;;5115919;28;20351;-76
2021/04/16 10:15:38;;;;;;;;;;;9.00;99.90;;;;;;5096889;28;19942;-76
2021/04/16 10:18:12;;;;;;;;;;;9.00;99.90;;;;;;5110529;28;19915;-76
2021/04/16 10:20:41;;;;;;;;;;;8.90;99.90;;;;;;5077003;28;19911;-76
2021/04/16 10:23:22;;;;;;;;;;;9.20;99.90;;;;;;5095443;28;19904;-75
2021/04/16 10:40:29;;;;;;;;;;;10.30;97.60;;;;;;5094672;28;19911;-77
2021/04/16 12:40:13;;;;;;;;;;;9.90;95.90;;;;;;5103675;28;19944;-76
2021/04/16 12:42:38;;;;;;;1.13;0.88;;;10.00;94.50;;;;;;5094182;28;19990;-76
2021/04/16 12:45:04;;;;;;;1.95;0.60;;;9.90;96.00;;;;;;5093595;28;20398;-76
2021/04/16 12:47:31;;;;;;;0.80;0.73;;;9.70;95.50;;;;;;5112172;28;20023;-76
2021/04/16 12:49:58;;;;;;;;;;;9.20;95.90;;;;;;5112913;28;20474;-77
2021/04/16 12:52:24;;;;;;;;;;;8.70;99.50;;;;;;5094376;28;19911;-76
2021/04/16 12:54:51;;;;;;;;;;;8.60;98.50;;;;;;5093915;28;19911;-77
2021/04/16 12:57:18;;;;;;;;;;;8.80;99.10;;;;;;5102178;28;19908;-77
2021/04/16 12:59:44;;;;;;;;;;;9.00;98.20;;;;;;5091975;28;19910;-76
2021/04/16 13:02:16;;;;;;;;;;;9.40;99.60;;;;;;5073918;28;19908;-77
2021/04/16 13:04:42;;;;;;;;;;;9.40;98.50;;;;;;5091778;28;19946;-77
2021/04/16 13:07:08;;;;;;;0.40;0.40;;;9.80;97.70;;;;;;5073325;28;19955;-76
2021/04/16 13:09:34;;;;;;;0.45;0.45;;;10.10;97.00;;;;;;5073673;28;20008;-77
2021/04/16 13:12:00;;;;;;;0.35;0.30;;;9.80;96.20;;;;;;5092142;28;20016;-76
2021/04/16 13:14:25;;;;;;;0.43;0.43;;;9.30;96.90;;;;;;5072906;28;20050;-77
2021/04/16 13:16:51;;;;;;;0.90;0.77;;;9.00;97.90;;;;;;5091625;28;20077;-77
2021/04/16 13:19:25;;;;;;;2.47;1.35;;;8.90;99.40;;;;;;5073650;28;20047;-78
2021/04/16 13:21:56;;;;;;;1.67;0.77;;;8.90;98.00;;;;;;5092237;28;20070;-79
2021/04/16 13:24:22;;;;;;;2.15;1.73;;;9.00;98.70;;;;;;5091638;28;20107;-79
2021/04/16 13:26:48;;;;;;;0.57;0.47;;;8.80;99.90;;;;;;5091907;28;20145;-76
2021/04/16 13:29:13;;;;;;;1.20;0.98;;;8.50;99.30;;;;;;5073836;28;20043;-79
2021/04/16 13:31:39;;;;;;;1.80;1.27;;;8.50;99.90;;;;;;5073899;28;20065;-77
2021/04/16 13:34:05;;;;;;;2.63;0.75;;;8.60;99.90;;;;;;5090824;28;20082;-77
2021/04/16 13:36:30;;;;;;;;;;;8.40;99.90;;;;;;5074016;28;20433;-76
2021/04/16 13:38:57;;;;;;;;;;;8.30;99.90;;;;;;5091853;28;19908;-78
2021/04/16 13:41:23;;;;;;;;;;;8.30;99.90;;;;;;5092191;28;20007;-77
2021/04/16 13:43:49;;;;;;;;;;;8.20;99.90;;;;;;5073722;28;19996;-78
2021/04/16 13:46:16;;;;;;;;;;;8.30;99.90;;;;;;5092159;28;19949;-78
2021/04/16 13:48:46;;;;;;;;;;;8.50;99.90;;;;;;5073639;28;19991;-77
2021/04/16 13:51:11;;;;;;;;;;;8.50;99.90;;;;;;5074178;28;20278;-77
2021/04/16 13:53:37;;;;;;;;;;;8.80;99.90;;;;;;5073943;28;19907;-76
2021/04/16 13:56:03;;;;;;;;;;;9.10;99.90;;;;;;5073523;28;19915;-76
2021/04/16 13:58:28;;;;;;;;;;;9.30;99.90;;;;;;5093686;28;19908;-76
2021/04/16 14:00:54;;;;;;;;;;;9.30;99.60;;;;;;5093634;28;19911;-76
2021/04/16 14:03:31;;;;;;;;;;;9.50;99.20;;;;;;5112022;28;19907;-76
2021/04/16 14:05:58;;;;;;;;;;;9.50;99.40;;;;;;5093750;28;19986;-76
2021/04/16 14:08:32;;;;;;;;;;;9.50;99.90;;;;;;5093842;28;19912;-77
2021/04/16 14:10:59;;;;;;;;;;;9.40;99.90;;;;;;5094219;28;19987;-77
2021/04/16 14:13:27;;;;;;;;;;;9.40;99.80;;;;;;5094237;28;20045;-77
2021/04/16 14:15:53;;;;;;;;;;;9.40;99.70;;;;;;5096236;28;19912;-78
2021/04/16 14:18:30;;;;;;;;;;;9.60;98.90;;;;;;5115926;28;19907;-76
2021/04/16 14:20:55;;;;;;;;;;;9.50;99.60;;;;;;5097591;28;19904;-76
2021/04/16 14:23:21;;;;;;;;;;;9.80;99.80;;;;;;5097599;28;20397;-77
2021/04/16 14:25:47;;;;;;;;;;;9.80;98.40;;;;;;5115087;28;19911;-76
2021/04/16 14:28:13;;;;;;;;;;;9.80;98.80;;;;;;5115703;28;19923;-78
2021/04/16 14:30:40;;;;;;;;;;;9.90;99.80;;;;;;5097255;28;19990;-78
2021/04/16 14:33:10;;;;;;;;;;;10.10;98.60;;;;;;5114956;28;19908;-76
2021/04/16 14:35:35;;;;;;;;;;;9.90;99.30;;;;;;5096911;28;20002;-77
2021/04/16 14:38:02;;;;;;;;;;;9.50;99.20;;;;;;5097329;28;20006;-77
2021/04/16 14:40:28;;;;;;;;;;;8.90;99.90;;;;;;5097421;28;19907;-78
2021/04/16 14:42:53;;;;;;;;;;;8.70;99.90;;;;;;5115735;28;19904;-78
2021/04/16 14:45:24;;;;;;;;;;;8.80;99.90;;;;;;5097007;28;19903;-78
2021/04/16 14:47:49;;;;;;;;;;;8.80;99.90;;;;;;5096776;28;19903;-79
2021/04/16 14:50:15;;;;;;;;;;;8.70;99.90;;;;;;5097111;28;19911;-77
2021/04/16 14:52:42;;;;;;;;;;;8.60;99.90;;;;;;5097141;28;19959;-76
2021/04/16 14:55:14;;;;;;;;;;;8.70;99.90;;;;;;5096952;28;19950;-76
2021/04/16 14:57:40;;;;;;;;;;;8.70;99.90;;;;;;5097360;28;20002;-79
2021/04/16 15:00:10;;;;;;;;;;;8.60;99.90;;;;;;5097117;28;19946;-76
2021/04/16 15:02:36;;;;;;;;;;;8.60;99.90;;;;;;5096772;28;19942;-76
2021/04/16 15:05:02;;;;;;;;;;;8.60;99.90;;;;;;5096262;28;19973;-76
2021/04/16 15:07:29;;;;;;;;;;;8.60;99.90;;;;;;5115103;28;20361;-77
2021/04/16 15:09:57;;;;;;;;;;;8.70;99.90;;;;;;5096943;28;19992;-78
2021/04/16 15:12:23;;;;;;;;;;;8.70;99.90;;;;;;5117570;28;20370;-76
2021/04/16 15:14:50;;;;;;;;;;;8.80;99.90;;;;;;5107506;28;19916;-77
2021/04/16 15:17:16;;;;;;;;;;;8.70;99.90;;;;;;5107716;28;19982;-77
2021/04/16 15:19:43;;;;;;;;;;;8.60;99.90;;;;;;5100895;28;20211;-77
2021/04/16 15:22:11;;;;;;;;;;;8.70;99.90;;;;;;5101509;28;19953;-76
2021/04/16 15:24:37;;;;;;;;;;;8.80;99.90;;;;;;5076382;28;19904;-78
2021/04/16 15:27:04;;;;;;;;;;;8.90;99.90;;;;;;5093547;28;19942;-77
2021/04/16 15:29:31;;;;;;;;;;;9.20;99.90;;;;;;5076268;28;19951;-77
2021/04/16 15:31:59;;;;;;;;;;;9.40;99.90;;;;;;5076250;28;19910;-77
2021/04/16 15:48:06;;;;;;;;;;;8.70;99.90;;;;;;5114024;28;19904;-78
2021/04/16 15:50:34;;;;;;;;;;;8.80;99.90;;;;;;5114209;28;19904;-77
2021/04/16 15:53:00;;;;;;;;;;;8.80;99.90;;;;;;5095780;28;20427;-76
2021/04/16 15:55:25;;;;;;;;;;;8.90;99.90;;;;;;5113874;28;19907;-78
2021/04/16 15:57:51;;;;;;;;;;;9.10;99.90;;;;;;5095922;28;19908;-77
2021/04/16 16:00:28;;;;;;;;;;;9.00;99.90;;;;;;5096112;28;20177;-76
2021/04/16 16:02:57;;;;;;;;;;;8.60;99.90;;;;;;5096504;28;19904;-77
2021/04/16 16:05:23;;;;;;;;;;;8.40;99.90;;;;;;5095187;28;20022;-76
2021/04/16 16:07:48;;;;;;;;;;;8.30;99.90;;;;;;5095914;28;20405;-77
2021/04/16 16:10:14;;;;;;;;;;;8.40;99.90;;;;;;5095100;28;19943;-77
2021/04/16 16:12:41;;;;;;;;;;;8.40;99.90;;;;;;5113536;28;19910;-77
2021/04/16 16:15:22;;;;;;;;;;;8.50;99.90;;;;;;5083063;28;19915;-78
2021/04/16 16:17:49;;;;;;;;;;;8.50;99.90;;;;;;5112155;28;19943;-76
2021/04/16 16:20:16;;;;;;;;;;;8.60;99.90;;;;;;5095608;28;20259;-77
2021/04/16 16:22:42;;;;;;;;;;;8.50;99.90;;;;;;5113445;28;19953;-79
2021/04/16 16:25:08;;;;;;;;;;;8.40;99.90;;;;;;5093887;28;19911;-76
2021/04/16 16:27:34;;;;;;;;;;;8.20;99.90;;;;;;5083223;28;20359;-76
2021/04/16 16:29:59;;;;;;;;;;;8.20;99.90;;;;;;5086805;28;19990;-76
2021/04/16 16:32:34;;;;;;;;;;;8.40;99.90;;;;;;5095780;28;19904;-79
2021/04/16 16:34:59;;;;;;;;;;;8.40;99.90;;;;;;5094862;28;19911;-78
2021/04/16 16:37:25;;;;;;;;;;;8.20;99.90;;;;;;5099862;28;19919;-79
2021/04/16 16:39:51;;;;;;;;;;;8.00;99.90;;;;;;5075794;28;20364;-75
2021/04/16 16:42:22;;;;;;;;;;;8.20;99.90;;;;;;5093766;28;20371;-78
2021/04/16 16:44:48;;;;;;;;;;;8.00;99.90;;;;;;5093054;28;19911;-78